»·PEaware :: SWA5510 KBOI-KSMF

SWA5510 :: KBOI-KSMF

FLIGHT INFORMATION

Flight Status: Arrived
Operator:
Southwest Airlines
More flights by this operator :: More flights under this callsign
Pilot: Paul A. (20189)
Aircraft: BOEING 737-700
(B737)
More flights by this aircraft type
Origin: KBOI Boise Air Terminal/Gowen
United States
Destination: KSMF Sacramento Intl
United States
More flights between these airports :: More routes between these airports
Route: +BOI3 HYVAL REO ANAHO SLMMR3
File this flight plan on PilotEdge
Remarks:
Altitude:
(Current/Filed)
34,000ft
Speed:
(Current/Filed)
455kts
Departed: 23-Oct-18 08:02 AM
Arrived: 23-Oct-18 09:08 AM
Distance/Time
Traveled:
380nm/1:05
Distance/Time
To Go:
Arrived

Flight Plot

Page will automatically refresh every two minutes.

Flight plan parsing failed; only flown route is shown


Map Options




Map Legend


Flown Route
Filed Route
Departure Airport
Arrival Airport
Navaid (VOR, NDB)
Fix

Horizontal Profiles

Position Reports

Time Latitude Longitude Heading Altitude Ground
Speed
23-Oct-18 07:46 43.566892 -116.219674 24 2842ft 0kts
23-Oct-18 07:47 43.566892 -116.219674 24 2842ft 0kts
23-Oct-18 07:48 43.566892 -116.219674 24 2842ft 0kts
23-Oct-18 07:49 43.566892 -116.219674 24 2842ft 0kts
23-Oct-18 07:50 43.566892 -116.219674 24 2842ft 0kts
23-Oct-18 07:51 43.566892 -116.219674 24 2842ft 0kts
23-Oct-18 07:52 43.566892 -116.219674 24 2842ft 0kts
23-Oct-18 07:53 43.566892 -116.219674 24 2842ft 0kts
23-Oct-18 07:54 43.566892 -116.219674 24 2842ft 0kts
23-Oct-18 07:55 43.566892 -116.219674 24 2842ft 0kts
23-Oct-18 07:56 43.566892 -116.219674 24 2842ft 0kts
23-Oct-18 07:57 43.566299 -116.219823 336 2842ft 2kts
23-Oct-18 07:58 43.566269 -116.219804 332 2842ft 0kts
23-Oct-18 07:59 43.566269 -116.219804 332 2842ft 0kts
23-Oct-18 08:00 43.566582 -116.220300 299 2842ft 9kts
23-Oct-18 08:01 43.568122 -116.227074 294 2842ft 22kts
23-Oct-18 08:02 43.570316 -116.233592 294 2842ft 18kts
23-Oct-18 08:03 43.570803 -116.236065 209 2842ft 0kts
23-Oct-18 08:04 43.565449 -116.222998 116 2843ft 145kts
23-Oct-18 08:05 43.547914 -116.164886 112 5481ft 183kts
23-Oct-18 08:06 43.513178 -116.092823 158 7463ft 268kts
23-Oct-18 08:07 43.447141 -116.134040 238 11146ft 294kts
23-Oct-18 08:08 43.404042 -116.244806 241 13652ft 354kts
23-Oct-18 08:09 43.356173 -116.367786 241 17354ft 375kts
23-Oct-18 08:10 43.305425 -116.497618 241 20713ft 394kts
23-Oct-18 08:11 43.252932 -116.633354 241 23559ft 412kts
23-Oct-18 08:12 43.197457 -116.774548 241 26070ft 426kts
23-Oct-18 08:13 43.139581 -116.919097 237 28168ft 439kts
23-Oct-18 08:14 43.064640 -117.054060 232 29978ft 450kts
23-Oct-18 08:15 42.987187 -117.187873 232 32125ft 445kts
23-Oct-18 08:16 42.911017 -117.319343 233 34015ft 442kts
23-Oct-18 08:17 42.834757 -117.451262 233 34097ft 439kts
23-Oct-18 08:18 42.758874 -117.581957 233 34100ft 440kts
23-Oct-18 08:19 42.682576 -117.712141 233 34099ft 439kts
23-Oct-18 08:20 42.604972 -117.839909 226 34098ft 442kts
23-Oct-18 08:21 42.497060 -117.924168 208 34100ft 451kts
23-Oct-18 08:22 42.382805 -117.994752 207 34101ft 452kts
23-Oct-18 08:23 42.267799 -118.064954 208 34103ft 453kts
23-Oct-18 08:24 42.153047 -118.134997 208 34107ft 453kts
23-Oct-18 08:25 42.038214 -118.204583 207 34111ft 453kts
23-Oct-18 08:26 41.923028 -118.274003 207 34116ft 453kts
23-Oct-18 08:27 41.807929 -118.343090 208 34122ft 454kts
23-Oct-18 08:28 41.692340 -118.412166 208 34127ft 454kts
23-Oct-18 08:29 41.577257 -118.480677 208 34136ft 454kts
23-Oct-18 08:30 41.461549 -118.549308 208 34140ft 455kts
23-Oct-18 08:31 41.345753 -118.617693 208 34141ft 455kts
23-Oct-18 08:32 41.229571 -118.686047 208 34143ft 456kts
23-Oct-18 08:33 41.113530 -118.754057 208 34150ft 456kts
23-Oct-18 08:34 40.997455 -118.821823 208 34150ft 456kts
23-Oct-18 08:35 40.881475 -118.889296 208 34154ft 457kts
23-Oct-18 08:36 40.765104 -118.956698 208 34156ft 457kts
23-Oct-18 08:37 40.648499 -119.023991 208 34156ft 457kts
23-Oct-18 08:38 40.532253 -119.090826 208 34157ft 457kts
23-Oct-18 08:39 40.415485 -119.157706 208 34157ft 457kts
23-Oct-18 08:40 40.298780 -119.224303 208 34163ft 457kts
23-Oct-18 08:41 40.182008 -119.290858 208 34166ft 456kts
23-Oct-18 08:42 40.065803 -119.356603 208 34169ft 457kts
23-Oct-18 08:43 39.956333 -119.435712 230 34170ft 443kts
23-Oct-18 08:44 39.883773 -119.563152 240 34176ft 436kts
23-Oct-18 08:45 39.815197 -119.693306 240 34181ft 436kts
23-Oct-18 08:46 39.746872 -119.822985 240 34196ft 435kts
23-Oct-18 08:47 39.678890 -119.951973 240 31410ft 434kts
23-Oct-18 08:48 39.610894 -120.080695 239 28221ft 427kts
23-Oct-18 08:49 39.544545 -120.204915 238 25497ft 412kts
23-Oct-18 08:50 39.479084 -120.324901 233 22781ft 403kts
23-Oct-18 08:51 39.393253 -120.414302 216 20748ft 390kts
23-Oct-18 08:52 39.303443 -120.492256 216 18940ft 384kts
23-Oct-18 08:53 39.216011 -120.567850 215 17184ft 374kts
23-Oct-18 08:54 39.130726 -120.641388 215 15473ft 364kts
23-Oct-18 08:55 39.065729 -120.728370 247 14252ft 317kts
23-Oct-18 08:56 39.038400 -120.829079 251 12937ft 292kts
23-Oct-18 08:57 39.012994 -120.926203 250 11463ft 276kts
23-Oct-18 08:58 38.988525 -121.019263 250 9723ft 273kts
23-Oct-18 08:59 38.965349 -121.107600 249 8472ft 241kts
23-Oct-18 09:00 38.944369 -121.187319 249 7382ft 233kts
23-Oct-18 09:01 38.923573 -121.265652 249 6301ft 229kts
23-Oct-18 09:02 38.903105 -121.342425 249 5245ft 225kts
23-Oct-18 09:03 38.877560 -121.414585 234 4209ft 214kts
23-Oct-18 09:04 38.845984 -121.473799 235 3287ft 195kts
23-Oct-18 09:05 38.820838 -121.534608 244 2513ft 184kts
23-Oct-18 09:06 38.801952 -121.586883 243 1927ft 141kts
23-Oct-18 09:07 38.767667 -121.600608 172 1271ft 144kts
23-Oct-18 09:08 38.730080 -121.600759 178 438ft 132kts
23-Oct-18 09:09 38.697197 -121.601191 185 36ft 58kts
23-Oct-18 09:10 38.692795 -121.598945 34 36ft 10kts
23-Oct-18 09:11 38.696346 -121.598624 0 36ft 20kts

Navigation Log

Ident Type
Flight plan parsing failed, navigation log unavailable